createdAt,value
2023-04-06T00:00:38.294Z,1.00
2023-04-06T00:03:05.253Z,1.00
2023-04-06T00:05:32.091Z,0.90
2023-04-06T00:07:59.539Z,0.90
2023-04-06T00:10:27.283Z,0.90
2023-04-06T00:12:57.514Z,1.00
2023-04-06T00:15:24.367Z,1.00
2023-04-06T00:17:51.232Z,1.00
2023-04-06T00:20:18.467Z,0.90
2023-04-06T00:22:46.289Z,0.90
2023-04-06T00:25:13.023Z,0.90
2023-04-06T00:27:39.977Z,0.90
2023-04-06T00:30:07.321Z,0.90
2023-04-06T00:32:34.945Z,0.90
2023-04-06T00:35:03.771Z,0.80
2023-04-06T00:37:30.540Z,0.80
2023-04-06T00:39:57.282Z,0.80
2023-04-06T00:42:27.443Z,0.80
2023-04-06T00:45:02.054Z,0.80
2023-04-06T00:47:29.532Z,0.70
2023-04-06T00:49:57.456Z,0.70
2023-04-06T00:52:24.289Z,0.70
2023-04-06T00:54:51.725Z,0.70
2023-04-06T00:57:20.621Z,0.70
2023-04-06T00:59:54.393Z,0.70
2023-04-06T01:02:21.653Z,0.60
2023-04-06T01:04:52.466Z,0.50
2023-04-06T01:07:39.460Z,0.40
2023-04-06T01:10:11.409Z,0.50
2023-04-06T01:12:39.804Z,0.50
2023-04-06T01:15:14.129Z,0.50
2023-04-06T01:17:43.745Z,0.60
2023-04-06T01:20:14.663Z,0.60
2023-04-06T01:22:41.807Z,0.60
2023-04-06T01:25:09.514Z,0.50
2023-04-06T01:27:46.623Z,0.40
2023-04-06T01:30:13.606Z,0.40
2023-04-06T01:32:48.093Z,0.30
2023-04-06T01:35:19.888Z,0.30
2023-04-06T01:37:57.056Z,0.30
2023-04-06T01:40:30.055Z,0.30
2023-04-06T01:42:56.886Z,0.20
2023-04-06T01:45:31.921Z,0.20
2023-04-06T01:48:05.365Z,0.20
2023-04-06T01:50:32.371Z,0.20
2023-04-06T01:52:59.448Z,0.30
2023-04-06T01:55:28.171Z,0.20
2023-04-06T01:58:15.033Z,0.20
2023-04-06T02:00:42.048Z,0.20
2023-04-06T02:03:09.451Z,0.20
2023-04-06T02:05:38.856Z,0.10
2023-04-06T02:08:16.617Z,0.10
2023-04-06T02:10:43.452Z,0.10
2023-04-06T02:13:19.375Z,0.10
2023-04-06T02:15:49.955Z,0.10
2023-04-06T02:18:18.589Z,0.10
2023-04-06T02:20:46.081Z,0.10
2023-04-06T02:23:13.965Z,0.00
2023-04-06T02:25:41.145Z,0.00
2023-04-06T02:28:08.285Z,0.00
2023-04-06T02:30:35.766Z,0.00
2023-04-06T02:33:02.998Z,0.00
2023-04-06T02:35:37.183Z,0.00
2023-04-06T02:38:04.008Z,-0.10
2023-04-06T02:40:30.856Z,-0.10
2023-04-06T02:43:01.806Z,-0.20
2023-04-06T02:45:31.652Z,-0.10
2023-04-06T02:48:00.417Z,-0.10
2023-04-06T02:50:28.084Z,-0.10
2023-04-06T02:53:00.033Z,-0.10
2023-04-06T02:55:27.174Z,-0.10
2023-04-06T02:57:53.908Z,-0.10
2023-04-06T03:00:25.856Z,-0.20
2023-04-06T03:02:52.672Z,-0.20
2023-04-06T03:05:19.766Z,-0.20
2023-04-06T03:07:47.541Z,-0.20
2023-04-06T03:10:21.966Z,-0.20
2023-04-06T03:12:49.818Z,-0.30
2023-04-06T03:15:24.951Z,-0.30
2023-04-06T03:18:00.418Z,-0.30
2023-04-06T03:20:43.501Z,-0.30
2023-04-06T03:23:11.177Z,-0.30
2023-04-06T03:25:41.506Z,-0.40
2023-04-06T03:28:10.995Z,-0.50
2023-04-06T03:30:46.855Z,-0.40
2023-04-06T03:33:16.540Z,-0.40
2023-04-06T03:35:52.017Z,-0.50
2023-04-06T03:38:19.060Z,-0.50
2023-04-06T03:40:45.889Z,-0.40
2023-04-06T03:43:12.947Z,-0.40
2023-04-06T03:45:40.411Z,-0.40
2023-04-06T03:48:07.842Z,-0.40
2023-04-06T03:50:36.648Z,-0.40
2023-04-06T03:53:06.107Z,-0.40
2023-04-06T03:55:34.001Z,-0.40
2023-04-06T03:58:00.905Z,-0.50
2023-04-06T04:00:28.440Z,-0.50
2023-04-06T04:02:55.820Z,-0.50
2023-04-06T04:05:26.155Z,-0.50
2023-04-06T04:07:53.539Z,-0.50
2023-04-06T04:10:23.663Z,-0.50
2023-04-06T04:12:50.723Z,-0.60
2023-04-06T04:15:17.454Z,-0.60
2023-04-06T04:17:47.851Z,-0.60
2023-04-06T04:20:14.737Z,-0.60
2023-04-06T04:22:41.824Z,-0.60
2023-04-06T04:25:10.242Z,-0.60
2023-04-06T04:27:42.260Z,-0.60
2023-04-06T04:30:09.263Z,-0.60
2023-04-06T04:32:36.307Z,-0.70
2023-04-06T04:35:06.027Z,-0.60
2023-04-06T04:37:38.282Z,-0.70
2023-04-06T04:40:05.961Z,-0.80
2023-04-06T04:42:42.210Z,-0.80
2023-04-06T04:45:14.444Z,-0.80
2023-04-06T04:47:42.207Z,-0.80
2023-04-06T04:50:10.836Z,-0.80
2023-04-06T04:52:41.259Z,-0.80
2023-04-06T04:55:14.471Z,-0.80
2023-04-06T04:57:43.746Z,-0.80
2023-04-06T05:00:11.769Z,-0.80
2023-04-06T05:02:41.577Z,-0.80
2023-04-06T05:05:21.353Z,-0.70
2023-04-06T05:07:48.063Z,-0.70
2023-04-06T05:10:25.307Z,-0.70
2023-04-06T05:12:56.872Z,-0.60
2023-04-06T05:15:23.599Z,-0.60
2023-04-06T05:17:54.463Z,-0.50
2023-04-06T05:20:26.315Z,-0.50
2023-04-06T05:22:53.352Z,-0.50
2023-04-06T05:25:20.258Z,-0.40
2023-04-06T05:27:51.437Z,-0.30
2023-04-06T05:30:38.598Z,-0.30
2023-04-06T05:33:05.452Z,-0.30
2023-04-06T05:35:45.600Z,-0.20
2023-04-06T05:38:13.633Z,-0.20
2023-04-06T05:40:42.069Z,-0.10
2023-04-06T05:43:12.424Z,0.00
2023-04-06T05:45:45.755Z,0.10
2023-04-06T05:48:12.550Z,0.10
2023-04-06T05:50:39.372Z,0.10
2023-04-06T05:53:06.747Z,0.10
2023-04-06T05:55:39.986Z,0.10
2023-04-06T05:58:12.262Z,0.10
2023-04-06T06:00:39.260Z,0.20
2023-04-06T06:03:09.597Z,0.30
2023-04-06T06:05:36.756Z,0.30
2023-04-06T06:08:09.609Z,0.40
2023-04-06T06:10:36.393Z,0.40
2023-04-06T06:13:03.228Z,0.40
2023-04-06T06:15:29.941Z,0.50
2023-04-06T06:17:56.723Z,0.60
2023-04-06T06:20:25.980Z,0.70
2023-04-06T06:22:53.128Z,0.80
2023-04-06T06:25:22.754Z,0.90
2023-04-06T06:27:50.472Z,1.00
2023-04-06T06:30:21.485Z,1.10
2023-04-06T06:32:51.200Z,1.20
2023-04-06T06:35:18.390Z,1.30
2023-04-06T06:37:45.381Z,1.50
2023-04-06T06:40:16.992Z,1.70
2023-04-06T06:42:44.700Z,1.80
2023-04-06T06:45:30.669Z,1.90
2023-04-06T06:47:57.917Z,2.10
2023-04-06T06:50:25.100Z,2.40
2023-04-06T06:52:51.908Z,2.30
2023-04-06T06:55:20.219Z,2.50
2023-04-06T06:57:47.424Z,2.80
2023-04-06T07:00:15.358Z,2.80
2023-04-06T07:02:43.579Z,2.90
2023-04-06T07:05:24.336Z,3.20
2023-04-06T07:07:53.823Z,3.30
2023-04-06T07:10:20.791Z,3.20
2023-04-06T07:12:47.608Z,3.20
2023-04-06T07:15:14.526Z,3.50
2023-04-06T07:17:46.129Z,3.60
2023-04-06T07:20:13.939Z,3.70
2023-04-06T07:22:43.693Z,4.10
2023-04-06T07:25:10.838Z,4.30
2023-04-06T07:27:37.577Z,4.40
2023-04-06T07:30:04.740Z,4.80
2023-04-06T07:32:31.851Z,5.00
2023-04-06T07:34:59.323Z,5.20
2023-04-06T07:37:26.249Z,5.10
2023-04-06T07:39:53.318Z,5.40
2023-04-06T07:42:20.473Z,5.60
2023-04-06T07:44:49.026Z,5.70
2023-04-06T07:47:15.999Z,6.00
2023-04-06T07:49:43.248Z,5.90
2023-04-06T07:52:10.294Z,5.90
2023-04-06T07:54:37.405Z,6.00
2023-04-06T07:57:04.185Z,6.10
2023-04-06T07:59:30.984Z,5.80
2023-04-06T08:01:57.659Z,5.90
2023-04-06T08:04:24.488Z,6.00
2023-04-06T08:06:51.241Z,6.00
2023-04-06T08:09:18.038Z,6.20
2023-04-06T08:11:47.042Z,6.50
2023-04-06T08:14:13.740Z,6.80
2023-04-06T08:16:40.546Z,7.10
2023-04-06T08:19:10.107Z,7.10
2023-04-06T08:21:37.007Z,7.30
2023-04-06T08:24:04.126Z,7.50
2023-04-06T08:26:31.060Z,7.50
2023-04-06T08:28:57.781Z,7.70
2023-04-06T08:31:24.488Z,8.00
2023-04-06T08:33:51.326Z,8.00
2023-04-06T08:36:21.157Z,8.20
2023-04-06T08:38:47.976Z,8.50
2023-04-06T08:41:15.137Z,8.70
2023-04-06T08:43:48.842Z,8.70
2023-04-06T08:46:16.304Z,8.90
2023-04-06T08:48:44.266Z,8.70
2023-04-06T08:51:11.634Z,8.80
2023-04-06T08:53:39.164Z,9.00
2023-04-06T08:56:06.618Z,8.90
2023-04-06T08:58:39.010Z,9.20
2023-04-06T09:01:12.224Z,9.30
2023-04-06T09:03:41.131Z,9.60
2023-04-06T09:06:08.988Z,9.90
2023-04-06T09:08:36.601Z,10.10
2023-04-06T09:11:04.257Z,10.30
2023-04-06T09:13:32.020Z,10.30
2023-04-06T09:16:07.235Z,10.30
2023-04-06T09:18:34.829Z,10.20
2023-04-06T09:21:03.172Z,10.30
2023-04-06T09:23:30.266Z,10.40
2023-04-06T09:26:17.313Z,10.40
2023-04-06T09:28:54.185Z,10.50
2023-04-06T09:31:24.799Z,10.60
2023-04-06T09:33:53.048Z,10.50
2023-04-06T09:36:20.350Z,10.70
2023-04-06T09:38:58.569Z,10.90
2023-04-06T09:41:28.232Z,11.00
2023-04-06T09:44:08.196Z,11.30
2023-04-06T09:46:50.724Z,11.40
2023-04-06T09:49:28.128Z,11.60
2023-04-06T09:51:59.494Z,11.80
2023-04-06T09:54:29.700Z,11.90
2023-04-06T09:57:26.841Z,11.90
2023-04-06T10:00:10.750Z,11.60
2023-04-06T10:03:00.389Z,11.70
2023-04-06T10:05:45.590Z,11.70
2023-04-06T10:08:13.003Z,11.70
2023-04-06T10:10:39.820Z,11.90
2023-04-06T10:13:07.135Z,12.20
2023-04-06T10:15:34.707Z,12.30
2023-04-06T10:18:03.006Z,12.20
2023-04-06T10:20:42.881Z,12.40
2023-04-06T10:23:21.060Z,12.70
2023-04-06T10:25:59.923Z,12.90
2023-04-06T10:28:31.154Z,12.40
2023-04-06T10:31:02.451Z,12.50
2023-04-06T10:33:29.476Z,12.50
2023-04-06T10:35:56.880Z,12.70
2023-04-06T10:38:37.080Z,13.00
2023-04-06T10:41:06.933Z,13.10
2023-04-06T10:43:38.212Z,12.90
2023-04-06T10:46:06.780Z,12.80
2023-04-06T10:48:41.369Z,12.80
2023-04-06T10:51:16.481Z,12.60
2023-04-06T10:53:46.203Z,12.70
2023-04-06T10:56:17.265Z,12.80
2023-04-06T10:58:53.617Z,12.60
2023-04-06T11:01:22.343Z,13.00
2023-04-06T11:03:51.902Z,13.20
2023-04-06T11:06:23.557Z,12.90
2023-04-06T11:08:51.228Z,13.10
2023-04-06T11:11:21.086Z,13.40
2023-04-06T11:13:58.864Z,13.60
2023-04-06T11:16:33.248Z,13.70
2023-04-06T11:19:06.845Z,13.50
2023-04-06T11:21:42.265Z,13.00
2023-04-06T11:24:20.128Z,12.80
2023-04-06T11:26:52.343Z,13.00
2023-04-06T11:29:22.302Z,13.30
2023-04-06T11:31:59.895Z,13.60
2023-04-06T11:34:28.870Z,13.50
2023-04-06T11:36:58.105Z,13.30
2023-04-06T11:39:27.472Z,13.10
2023-04-06T11:41:58.605Z,13.20
2023-04-06T11:44:47.119Z,13.50
2023-04-06T11:47:14.119Z,13.20
2023-04-06T11:49:43.021Z,13.50
2023-04-06T11:52:15.965Z,13.60
2023-04-06T11:54:42.676Z,13.40
2023-04-06T11:57:10.399Z,13.90
2023-04-06T11:59:37.453Z,14.10
2023-04-06T12:02:04.980Z,14.40
2023-04-06T12:04:32.782Z,14.40
2023-04-06T12:06:59.709Z,14.20
2023-04-06T12:09:26.481Z,14.20
2023-04-06T12:11:53.167Z,14.20
2023-04-06T12:14:20.385Z,14.70
2023-04-06T12:16:47.313Z,14.70
2023-04-06T12:19:14.398Z,15.00
2023-04-06T12:21:41.423Z,15.30
2023-04-06T12:24:08.238Z,15.60
2023-04-06T12:26:35.764Z,15.50
2023-04-06T12:29:07.727Z,15.30
2023-04-06T12:31:37.089Z,15.30
2023-04-06T12:34:04.421Z,15.50
2023-04-06T12:36:32.082Z,15.40
2023-04-06T12:38:59.226Z,15.20
2023-04-06T12:41:26.066Z,15.20
2023-04-06T12:43:52.842Z,15.30
2023-04-06T12:46:19.638Z,15.20
2023-04-06T12:48:47.195Z,15.30
2023-04-06T12:51:14.116Z,15.40
2023-04-06T12:53:41.020Z,15.30
2023-04-06T12:56:26.584Z,15.10
2023-04-06T12:58:53.666Z,15.10
2023-04-06T13:01:21.301Z,14.90
2023-04-06T13:03:48.253Z,14.90
2023-04-06T13:06:16.266Z,14.90
2023-04-06T13:08:44.459Z,15.10
2023-04-06T13:11:11.246Z,14.60
2023-04-06T13:13:38.406Z,14.80
2023-04-06T13:16:08.681Z,14.70
2023-04-06T13:18:36.386Z,14.50
2023-04-06T13:21:03.218Z,14.50
2023-04-06T13:23:30.288Z,14.60
2023-04-06T13:26:01.577Z,14.80
2023-04-06T13:28:28.756Z,14.80
2023-04-06T13:30:56.329Z,14.50
2023-04-06T13:33:23.523Z,14.40
2023-04-06T13:35:50.419Z,14.30
2023-04-06T13:38:17.391Z,14.10
2023-04-06T13:40:44.259Z,14.10
2023-04-06T13:43:11.669Z,14.10
2023-04-06T13:45:39.242Z,14.10
2023-04-06T13:48:06.752Z,14.10
2023-04-06T13:50:34.478Z,14.20
2023-04-06T13:53:01.228Z,14.00
2023-04-06T13:55:27.983Z,14.00
2023-04-06T13:57:55.961Z,14.30
2023-04-06T14:00:25.437Z,14.20
2023-04-06T14:02:54.377Z,14.10
2023-04-06T14:05:21.295Z,13.90
2023-04-06T14:07:47.996Z,14.10
2023-04-06T14:10:15.353Z,14.20
2023-04-06T14:12:44.702Z,14.10
2023-04-06T14:15:13.245Z,14.20
2023-04-06T14:17:40.124Z,14.20
2023-04-06T14:20:07.859Z,14.30
2023-04-06T14:22:34.706Z,14.10
2023-04-06T14:25:01.535Z,14.10
2023-04-06T14:27:28.214Z,14.20
2023-04-06T14:29:55.199Z,14.10
2023-04-06T14:32:22.299Z,14.00
2023-04-06T14:34:49.077Z,13.80
2023-04-06T14:37:16.025Z,13.60
2023-04-06T14:39:42.724Z,13.70
2023-04-06T14:42:09.396Z,13.60
2023-04-06T14:44:37.646Z,13.60
2023-04-06T14:47:07.344Z,13.50
2023-04-06T14:49:34.059Z,13.50
2023-04-06T14:52:01.053Z,13.40
2023-04-06T14:54:28.005Z,13.20
2023-04-06T14:56:54.662Z,13.30
2023-04-06T14:59:21.395Z,12.80
2023-04-06T15:01:48.067Z,12.60
2023-04-06T15:04:15.173Z,12.50
2023-04-06T15:06:42.536Z,12.50
2023-04-06T15:09:09.215Z,12.50
2023-04-06T15:11:35.886Z,12.70
2023-04-06T15:14:02.968Z,12.70
2023-04-06T15:16:33.238Z,13.00
2023-04-06T15:19:01.242Z,13.10
2023-04-06T15:21:28.280Z,13.00
2023-04-06T15:23:55.913Z,12.70
2023-04-06T15:26:22.658Z,12.50
2023-04-06T15:28:49.412Z,12.50
2023-04-06T15:34:04.027Z,12.40
2023-04-06T15:36:31.252Z,12.30
2023-04-06T15:38:59.190Z,12.10
2023-04-06T15:41:29.077Z,12.40
2023-04-06T15:43:56.044Z,12.50
2023-04-06T15:46:23.147Z,12.40
2023-04-06T15:48:49.902Z,12.30
2023-04-06T15:51:17.594Z,12.10
2023-04-06T15:53:44.846Z,11.80
2023-04-06T15:56:14.121Z,11.40
2023-04-06T15:58:41.133Z,11.20
2023-04-06T16:01:13.140Z,11.10
2023-04-06T16:03:40.028Z,11.10
2023-04-06T16:06:08.940Z,11.30
2023-04-06T16:08:37.020Z,11.40
2023-04-06T16:11:04.204Z,11.60
2023-04-06T16:13:31.259Z,11.60
2023-04-06T16:15:58.005Z,11.70
2023-04-06T16:18:25.162Z,11.40
2023-04-06T16:20:51.875Z,11.00
2023-04-06T16:23:18.661Z,11.10
2023-04-06T16:25:45.767Z,11.00
2023-04-06T16:28:12.593Z,10.90
2023-04-06T16:30:40.999Z,10.70
2023-04-06T16:33:10.456Z,10.60
2023-04-06T16:35:43.769Z,10.80
2023-04-06T16:38:10.543Z,10.90
2023-04-06T16:40:37.206Z,11.00
2023-04-06T16:43:05.072Z,11.00
2023-04-06T16:45:32.058Z,10.80
2023-04-06T16:47:58.887Z,10.40
2023-04-06T16:50:26.045Z,10.00
2023-04-06T16:52:52.790Z,10.10
2023-04-06T16:55:20.800Z,9.90
2023-04-06T16:57:49.262Z,9.90
2023-04-06T17:00:16.786Z,9.90
2023-04-06T17:02:47.295Z,9.90
2023-04-06T17:05:14.423Z,9.80
2023-04-06T17:07:41.238Z,9.80
2023-04-06T17:10:08.405Z,9.80
2023-04-06T17:12:35.211Z,9.70
2023-04-06T17:15:02.050Z,9.70
2023-04-06T17:17:29.022Z,9.70
2023-04-06T17:19:55.815Z,9.60
2023-04-06T17:22:22.548Z,9.60
2023-04-06T17:24:49.479Z,9.50
2023-04-06T17:27:16.615Z,9.40
2023-04-06T17:29:43.372Z,9.40
2023-04-06T17:32:12.055Z,9.40
2023-04-06T17:34:39.261Z,9.20
2023-04-06T17:37:06.114Z,9.10
2023-04-06T17:39:33.101Z,9.20
2023-04-06T17:42:00.099Z,9.20
2023-04-06T17:44:26.945Z,9.20
2023-04-06T17:46:53.739Z,9.00
2023-04-06T17:49:20.457Z,9.10
2023-04-06T17:51:47.285Z,9.10
2023-04-06T17:54:14.114Z,9.00
2023-04-06T17:56:41.491Z,8.70
2023-04-06T17:59:11.310Z,8.80
2023-04-06T18:01:39.481Z,8.70
2023-04-06T18:04:06.397Z,8.60
2023-04-06T18:06:33.357Z,8.70
2023-04-06T18:09:00.854Z,8.50
2023-04-06T18:11:30.807Z,8.50
2023-04-06T18:13:58.238Z,8.40
2023-04-06T18:16:25.336Z,8.30
2023-04-06T18:18:52.192Z,8.20
2023-04-06T18:21:19.085Z,8.20
2023-04-06T18:23:46.636Z,8.10
2023-04-06T18:26:19.065Z,8.00
2023-04-06T18:28:46.714Z,8.00
2023-04-06T18:31:14.326Z,8.00
2023-04-06T18:33:41.127Z,7.90
2023-04-06T18:36:09.697Z,7.90
2023-04-06T18:38:38.488Z,7.80
2023-04-06T18:41:05.628Z,7.70
2023-04-06T18:43:32.488Z,7.80
2023-04-06T18:46:00.548Z,7.70
2023-04-06T18:48:27.507Z,7.70
2023-04-06T18:51:01.636Z,7.70
2023-04-06T18:53:28.617Z,7.70
2023-04-06T18:55:59.163Z,7.80
2023-04-06T18:58:26.609Z,7.80
2023-04-06T19:00:59.645Z,7.80
2023-04-06T19:03:26.816Z,7.80
2023-04-06T19:05:53.671Z,7.80
2023-04-06T19:08:20.379Z,7.90
2023-04-06T19:10:49.198Z,7.90
2023-04-06T19:13:16.100Z,7.90
2023-04-06T19:15:42.829Z,7.80
2023-04-06T19:18:09.625Z,7.70
2023-04-06T19:20:36.377Z,7.80
2023-04-06T19:23:03.799Z,7.70
2023-04-06T19:25:31.262Z,7.70
2023-04-06T19:27:58.004Z,7.70
2023-04-06T19:30:24.771Z,7.60
2023-04-06T19:32:51.571Z,7.70
2023-04-06T19:35:18.380Z,7.60
2023-04-06T19:37:45.268Z,7.80
2023-04-06T19:40:12.165Z,7.80
2023-04-06T19:42:39.020Z,7.70
2023-04-06T19:45:07.274Z,7.70
2023-04-06T19:47:35.398Z,7.70
2023-04-06T19:50:04.165Z,7.70
2023-04-06T19:52:31.462Z,7.80
2023-04-06T19:54:59.104Z,7.80
2023-04-06T19:57:26.209Z,7.80
2023-04-06T19:59:54.598Z,7.70
2023-04-06T20:02:21.763Z,7.60
2023-04-06T20:04:49.442Z,7.60
2023-04-06T20:07:16.294Z,7.60
2023-04-06T20:09:43.187Z,7.50
2023-04-06T20:12:09.920Z,7.70
2023-04-06T20:14:36.672Z,7.80
2023-04-06T20:17:03.475Z,7.90
2023-04-06T20:19:30.356Z,7.90
2023-04-06T20:21:57.725Z,8.00
2023-04-06T20:24:24.543Z,7.90
2023-04-06T20:26:51.287Z,7.90
2023-04-06T20:29:18.134Z,7.70
2023-04-06T20:31:44.944Z,7.70
2023-04-06T20:34:12.000Z,7.70
2023-04-06T20:36:40.064Z,7.70
2023-04-06T20:39:07.079Z,7.90
2023-04-06T20:41:34.002Z,7.90
2023-04-06T20:44:01.655Z,7.90
2023-04-06T20:46:28.426Z,7.90
2023-04-06T20:48:55.582Z,7.90
2023-04-06T20:51:25.603Z,7.90
2023-04-06T20:53:52.864Z,7.90
2023-04-06T20:56:21.765Z,7.90
2023-04-06T20:58:49.334Z,8.00
2023-04-06T21:01:17.559Z,8.10
2023-04-06T21:03:44.722Z,8.10
2023-04-06T21:06:11.714Z,8.10
2023-04-06T21:08:38.656Z,8.00
2023-04-06T21:11:06.244Z,7.90
2023-04-06T21:13:33.694Z,7.90
2023-04-06T21:16:01.363Z,7.90
2023-04-06T21:18:29.998Z,7.90
2023-04-06T21:20:56.746Z,8.00
2023-04-06T21:23:23.681Z,8.00
2023-04-06T21:25:51.845Z,8.00
2023-04-06T21:28:19.194Z,8.10
2023-04-06T21:30:46.007Z,8.10
2023-04-06T21:33:12.760Z,8.20
2023-04-06T21:35:40.414Z,8.20
2023-04-06T21:38:08.249Z,8.20
2023-04-06T21:40:35.193Z,8.20
2023-04-06T21:43:01.879Z,8.10
2023-04-06T21:45:28.596Z,8.10
2023-04-06T21:47:55.597Z,8.00
2023-04-06T21:50:22.351Z,8.00
2023-04-06T21:52:49.021Z,8.00
2023-04-06T21:55:15.845Z,8.00
2023-04-06T21:57:44.322Z,8.00
2023-04-06T22:00:11.976Z,8.00
2023-04-06T22:02:45.790Z,7.90
2023-04-06T22:05:12.982Z,8.00
2023-04-06T22:07:39.818Z,8.00
2023-04-06T22:10:07.745Z,8.00
2023-04-06T22:12:34.401Z,8.00
2023-04-06T22:15:01.138Z,7.90
2023-04-06T22:17:27.873Z,7.80
2023-04-06T22:19:54.612Z,7.80
2023-04-06T22:22:21.363Z,7.80
2023-04-06T22:24:48.247Z,7.80
2023-04-06T22:27:14.942Z,7.70
2023-04-06T22:29:41.652Z,7.70
2023-04-06T22:32:08.393Z,7.70
2023-04-06T22:34:35.098Z,7.70
2023-04-06T22:37:01.752Z,7.80
2023-04-06T22:39:28.425Z,7.80
2023-04-06T22:41:55.162Z,7.90
2023-04-06T22:44:21.844Z,7.90
2023-04-06T22:46:48.557Z,8.00
2023-04-06T22:49:15.434Z,7.90
2023-04-06T22:51:42.222Z,7.90
2023-04-06T22:54:09.722Z,8.00
2023-04-06T22:56:36.402Z,7.90
2023-04-06T22:59:03.568Z,7.90
2023-04-06T23:01:30.405Z,8.00
2023-04-06T23:03:57.375Z,7.90
2023-04-06T23:06:24.128Z,8.00
2023-04-06T23:08:50.828Z,8.00
2023-04-06T23:11:17.458Z,8.00
2023-04-06T23:13:44.144Z,7.90
2023-04-06T23:16:11.066Z,7.90
2023-04-06T23:18:37.820Z,7.90
2023-04-06T23:21:07.683Z,7.90
2023-04-06T23:23:34.574Z,7.90
2023-04-06T23:26:01.329Z,7.90
2023-04-06T23:28:28.069Z,7.90
2023-04-06T23:30:54.718Z,7.90
2023-04-06T23:33:21.630Z,8.00
2023-04-06T23:35:49.824Z,8.00
2023-04-06T23:38:16.578Z,8.00
2023-04-06T23:40:43.226Z,8.00
2023-04-06T23:43:10.104Z,8.00
2023-04-06T23:45:41.641Z,8.00
2023-04-06T23:48:09.068Z,7.90
2023-04-06T23:50:36.639Z,7.90
2023-04-06T23:53:04.052Z,8.00
2023-04-06T23:55:30.966Z,7.90
2023-04-06T23:57:57.704Z,8.00
